createdAt,value
2018-05-16T04:30:37.770Z,174.38
2018-05-16T04:31:07.693Z,174.38
2018-05-16T04:32:15.447Z,180.00
2018-05-16T04:32:45.445Z,180.00
2018-05-16T04:33:53.133Z,185.63
2018-05-16T04:34:23.083Z,185.63
2018-05-16T04:35:30.880Z,191.25
2018-05-16T04:36:00.780Z,191.25
2018-05-16T04:37:08.528Z,196.88
2018-05-16T04:37:38.481Z,196.88
2018-05-16T04:38:46.226Z,202.50
2018-05-16T04:39:16.175Z,202.50
2018-05-16T04:40:23.955Z,202.50
2018-05-16T04:40:53.871Z,208.13
2018-05-16T04:42:01.627Z,208.13
2018-05-16T04:42:31.571Z,208.13
2018-05-16T04:43:39.330Z,213.75
2018-05-16T04:44:09.273Z,213.75
2018-05-16T04:45:17.032Z,219.38
2018-05-16T04:45:46.983Z,219.38
2018-05-16T04:46:54.747Z,219.38
2018-05-16T04:47:24.682Z,225.00
2018-05-16T04:48:32.425Z,225.00
2018-05-16T04:49:02.366Z,225.00
2018-05-16T04:50:10.136Z,230.63
2018-05-16T04:50:40.077Z,230.63
2018-05-16T04:51:47.848Z,236.25
2018-05-16T04:52:17.773Z,236.25
2018-05-16T04:53:25.522Z,241.88
2018-05-16T04:53:55.471Z,247.50
2018-05-16T04:55:03.216Z,247.50
2018-05-16T04:55:33.170Z,253.13
2018-05-16T04:56:40.945Z,253.13
2018-05-16T04:57:10.864Z,253.13
2018-05-16T04:58:18.620Z,258.75
2018-05-16T04:58:48.555Z,258.75
2018-05-16T04:59:56.310Z,258.75
2018-05-16T05:00:26.262Z,264.38
2018-05-16T05:01:34.013Z,264.38
2018-05-16T05:02:03.957Z,270.00
2018-05-16T05:03:11.734Z,275.63
2018-05-16T05:03:41.657Z,275.63
2018-05-16T05:04:49.473Z,275.63
2018-05-16T05:05:19.355Z,281.25
2018-05-16T05:06:27.142Z,281.25
2018-05-16T05:06:57.055Z,281.25
2018-05-16T05:08:04.814Z,286.88
2018-05-16T05:08:34.749Z,286.88
2018-05-16T05:09:42.508Z,286.88
2018-05-16T05:10:12.454Z,292.50
2018-05-16T05:11:20.207Z,292.50
2018-05-16T05:11:50.241Z,298.13
2018-05-16T05:12:57.923Z,298.13
2018-05-16T05:13:27.846Z,303.75
2018-05-16T05:14:35.603Z,309.38
2018-05-16T05:15:05.549Z,309.38
2018-05-16T05:16:13.299Z,315.00
2018-05-16T05:16:43.246Z,315.00
2018-05-16T05:17:51.026Z,320.63
2018-05-16T05:18:21.052Z,326.25
2018-05-16T05:19:28.692Z,331.88
2018-05-16T05:19:58.640Z,331.88
2018-05-16T05:21:06.397Z,337.50
2018-05-16T05:21:36.337Z,337.50
2018-05-16T05:22:44.093Z,343.13
2018-05-16T05:23:14.035Z,343.13
2018-05-16T05:24:21.818Z,348.75
2018-05-16T05:24:51.733Z,348.75
2018-05-16T05:25:59.494Z,360.00
2018-05-16T05:26:29.431Z,360.00
2018-05-16T05:27:37.201Z,365.63
2018-05-16T05:28:07.140Z,365.63
2018-05-16T05:29:14.915Z,371.25
2018-05-16T05:29:44.844Z,376.88
2018-05-16T05:30:52.594Z,388.13
2018-05-16T05:31:22.543Z,382.50
2018-05-16T05:32:30.298Z,388.13
2018-05-16T05:33:00.246Z,388.13
2018-05-16T05:34:08.026Z,393.75
2018-05-16T05:34:37.944Z,399.38
2018-05-16T05:35:45.697Z,410.63
2018-05-16T05:36:15.637Z,410.63
2018-05-16T05:37:23.400Z,421.88
2018-05-16T05:37:53.347Z,427.50
2018-05-16T05:39:01.094Z,438.75
2018-05-16T05:39:31.039Z,444.38
2018-05-16T05:40:38.811Z,450.00
2018-05-16T05:41:08.742Z,455.63
2018-05-16T05:42:16.489Z,466.88
2018-05-16T05:42:46.442Z,472.50
2018-05-16T05:43:54.188Z,483.75
2018-05-16T05:44:24.147Z,495.00
2018-05-16T05:45:32.109Z,506.25
2018-05-16T05:46:02.043Z,506.25
2018-05-16T05:47:09.798Z,534.38
2018-05-16T05:47:39.735Z,540.00
2018-05-16T05:48:47.488Z,551.25
2018-05-16T05:49:17.508Z,556.88
2018-05-16T05:50:25.219Z,585.00
2018-05-16T05:50:55.156Z,590.63
2018-05-16T05:52:02.904Z,551.25
2018-05-16T05:52:32.840Z,534.38
2018-05-16T05:53:40.606Z,534.38
2018-05-16T05:54:10.561Z,573.75
2018-05-16T05:55:18.308Z,624.38
2018-05-16T05:55:48.248Z,624.38
2018-05-16T05:56:56.028Z,635.63
2018-05-16T05:57:25.954Z,675.00
2018-05-16T05:58:33.711Z,680.63
2018-05-16T05:59:03.650Z,680.63
2018-05-16T06:00:11.457Z,691.88
2018-05-16T06:00:41.358Z,697.50
2018-05-16T06:01:49.138Z,742.50
2018-05-16T06:02:19.055Z,770.63
2018-05-16T06:03:26.814Z,781.88
2018-05-16T06:03:56.759Z,748.13
2018-05-16T06:05:04.523Z,686.25
2018-05-16T06:05:34.465Z,686.25
2018-05-16T06:06:42.220Z,663.75
2018-05-16T06:07:12.172Z,675.00
2018-05-16T06:08:19.935Z,680.63
2018-05-16T06:08:49.872Z,669.38
2018-05-16T06:09:57.629Z,742.50
2018-05-16T06:10:27.569Z,810.00
2018-05-16T06:11:35.330Z,855.00
2018-05-16T06:12:05.282Z,849.38
2018-05-16T06:13:13.056Z,894.38
2018-05-16T06:13:42.996Z,911.25
2018-05-16T06:14:50.745Z,950.63
2018-05-16T06:15:20.680Z,939.38
2018-05-16T06:16:28.436Z,978.75
2018-05-16T06:16:58.392Z,1046.25
2018-05-16T06:18:06.143Z,1063.13
2018-05-16T06:18:36.098Z,1051.88
2018-05-16T06:19:43.953Z,1057.50
2018-05-16T06:20:13.798Z,1068.75
2018-05-16T06:21:21.554Z,1136.25
2018-05-16T06:21:51.510Z,1209.38
2018-05-16T06:22:59.268Z,1951.88
2018-05-16T06:23:29.208Z,2266.88
2018-05-16T06:24:37.004Z,2131.88
2018-05-16T06:25:06.918Z,1996.88
2018-05-16T06:26:14.689Z,776.25
2018-05-16T06:26:44.629Z,1001.25
2018-05-16T06:27:52.385Z,2677.50
2018-05-16T06:28:22.333Z,2261.25
2018-05-16T06:29:30.102Z,2503.13
2018-05-16T06:30:00.047Z,2728.13
2018-05-16T06:31:07.825Z,2581.88
2018-05-16T06:31:37.762Z,2508.75
2018-05-16T06:32:45.535Z,2244.38
2018-05-16T06:33:15.474Z,2131.88
2018-05-16T06:34:23.240Z,2131.88
2018-05-16T06:34:53.189Z,2244.38
2018-05-16T06:36:00.985Z,2160.00
2018-05-16T06:36:30.912Z,1878.75
2018-05-16T06:37:38.685Z,1867.50
2018-05-16T06:38:08.634Z,1912.50
2018-05-16T06:39:16.421Z,2188.13
2018-05-16T06:39:46.352Z,2283.75
2018-05-16T06:40:54.117Z,2283.75
2018-05-16T06:41:24.073Z,2221.88
2018-05-16T06:42:31.867Z,2019.38
2018-05-16T06:43:01.784Z,1816.88
2018-05-16T06:44:09.554Z,2025.00
2018-05-16T06:44:39.497Z,2148.75
2018-05-16T06:45:47.353Z,2334.38
2018-05-16T06:46:17.221Z,2317.50
2018-05-16T06:47:24.998Z,2165.63
2018-05-16T06:47:54.929Z,2126.25
2018-05-16T06:49:02.707Z,2008.13
2018-05-16T06:49:32.659Z,1946.25
2018-05-16T06:50:40.419Z,1102.50
2018-05-16T06:51:10.369Z,742.50
2018-05-16T06:52:18.169Z,1125.00
2018-05-16T06:52:48.086Z,1158.75
2018-05-16T06:53:55.862Z,1591.88
2018-05-16T06:54:25.810Z,1293.75
2018-05-16T06:55:33.569Z,973.13
2018-05-16T06:56:03.527Z,770.63
2018-05-16T06:57:11.291Z,551.25
2018-05-16T06:57:41.250Z,472.50
2018-05-16T06:58:49.028Z,376.88
2018-05-16T06:59:18.958Z,354.38
2018-05-16T07:00:26.723Z,320.63
2018-05-16T07:00:56.674Z,320.63
2018-05-16T07:02:04.432Z,343.13
2018-05-16T07:02:34.386Z,354.38
2018-05-16T07:03:42.159Z,315.00
2018-05-16T07:04:12.185Z,292.50
2018-05-16T07:05:19.856Z,225.00
2018-05-16T07:05:49.798Z,219.38
2018-05-16T07:06:57.587Z,225.00
2018-05-16T07:07:27.510Z,219.38
2018-05-16T07:08:35.291Z,236.25
2018-05-16T07:09:05.216Z,247.50
2018-05-16T07:10:12.981Z,286.88
2018-05-16T07:10:42.927Z,309.38
2018-05-16T07:11:50.681Z,354.38
2018-05-16T07:12:20.641Z,365.63
2018-05-16T07:13:28.427Z,421.88
2018-05-16T07:13:58.346Z,438.75
2018-05-16T07:15:06.110Z,438.75
2018-05-16T07:15:36.050Z,421.88
2018-05-16T07:16:43.816Z,427.50
2018-05-16T07:17:13.760Z,444.38
2018-05-16T07:18:21.520Z,517.50
2018-05-16T07:18:51.462Z,528.75
2018-05-16T07:19:59.239Z,444.38
2018-05-16T07:20:29.170Z,405.00
2018-05-16T07:21:36.928Z,393.75
2018-05-16T07:22:06.881Z,393.75
2018-05-16T07:23:14.661Z,405.00
2018-05-16T07:23:44.602Z,399.38
2018-05-16T07:24:52.352Z,331.88
2018-05-16T07:25:22.301Z,331.88
2018-05-16T07:26:30.052Z,427.50
2018-05-16T07:27:00.005Z,472.50
2018-05-16T07:28:07.752Z,466.88
2018-05-16T07:28:37.703Z,466.88
2018-05-16T07:29:45.476Z,472.50
2018-05-16T07:30:15.402Z,450.00
2018-05-16T07:31:23.220Z,371.25
2018-05-16T07:31:53.170Z,365.63
2018-05-16T07:33:00.921Z,354.38
2018-05-16T07:33:30.872Z,348.75
2018-05-16T07:34:38.658Z,410.63
2018-05-16T07:35:08.580Z,427.50
2018-05-16T07:36:16.338Z,421.88
2018-05-16T07:36:46.289Z,405.00
2018-05-16T07:37:54.043Z,410.63
2018-05-16T07:38:23.994Z,416.25
2018-05-16T07:39:31.754Z,405.00
2018-05-16T07:40:01.701Z,421.88
2018-05-16T07:41:09.558Z,376.88
2018-05-16T07:41:39.399Z,388.13
2018-05-16T07:42:47.165Z,416.25
2018-05-16T07:43:17.111Z,393.75
2018-05-16T07:44:24.861Z,399.38
2018-05-16T07:44:54.817Z,421.88
2018-05-16T07:46:02.578Z,421.88
2018-05-16T07:46:32.515Z,433.13
2018-05-16T07:47:40.270Z,450.00
2018-05-16T07:48:10.218Z,466.88
2018-05-16T07:49:17.969Z,545.63
2018-05-16T07:49:47.921Z,545.63
2018-05-16T07:50:55.711Z,517.50
2018-05-16T07:51:25.622Z,511.88
2018-05-16T07:52:33.382Z,511.88
2018-05-16T07:53:03.327Z,489.38
2018-05-16T07:54:11.084Z,534.38
2018-05-16T07:54:41.041Z,590.63
2018-05-16T07:55:48.791Z,630.00
2018-05-16T07:56:18.734Z,675.00
2018-05-16T07:57:26.518Z,787.50
2018-05-16T07:57:56.437Z,765.00
2018-05-16T07:59:04.195Z,731.25
2018-05-16T07:59:34.146Z,720.00
2018-05-16T08:00:41.907Z,691.88
2018-05-16T08:01:11.855Z,680.63
2018-05-16T08:02:19.640Z,731.25
2018-05-16T08:02:49.559Z,781.88
2018-05-16T08:03:57.312Z,933.75
2018-05-16T08:04:27.271Z,1012.50
2018-05-16T08:05:35.020Z,1130.63
2018-05-16T08:06:04.968Z,1175.63
2018-05-16T08:07:12.728Z,1428.75
2018-05-16T08:07:42.683Z,1395.00
2018-05-16T08:08:50.449Z,1170.00
2018-05-16T08:09:20.378Z,1068.75
2018-05-16T08:10:28.140Z,905.63
2018-05-16T08:10:58.099Z,866.25
2018-05-16T08:12:05.853Z,860.63
2018-05-16T08:12:35.795Z,838.13
2018-05-16T08:13:43.573Z,765.00
2018-05-16T08:14:13.503Z,708.75
2018-05-16T08:15:21.258Z,765.00
2018-05-16T08:15:51.209Z,776.25
2018-05-16T08:16:58.975Z,843.75
2018-05-16T08:17:28.914Z,877.50
2018-05-16T08:18:36.704Z,995.63
2018-05-16T08:19:06.630Z,1096.88
2018-05-16T08:20:14.387Z,1113.75
2018-05-16T08:20:44.332Z,1108.13
2018-05-16T08:21:52.152Z,1153.13
2018-05-16T08:22:22.031Z,1220.63
2018-05-16T08:23:29.796Z,1186.88
2018-05-16T08:23:59.747Z,1271.25
2018-05-16T08:25:07.537Z,1518.75
2018-05-16T08:25:37.460Z,1580.63
2018-05-16T08:26:45.216Z,1501.88
2018-05-16T08:27:15.167Z,1411.88
2018-05-16T08:28:22.928Z,1046.25
2018-05-16T08:28:52.874Z,1040.63
2018-05-16T08:30:00.642Z,1057.50
2018-05-16T08:30:30.582Z,1096.88
2018-05-16T08:31:38.363Z,1237.50
2018-05-16T08:32:08.293Z,2345.63
2018-05-16T08:33:16.048Z,1530.00
2018-05-16T08:33:46.006Z,1276.88
2018-05-16T08:34:53.766Z,1310.63
2018-05-16T08:35:23.719Z,1530.00
2018-05-16T08:36:31.496Z,1366.88
2018-05-16T08:37:01.426Z,1411.88
2018-05-16T08:38:09.199Z,1445.63
2018-05-16T08:38:39.136Z,1541.25
2018-05-16T08:39:46.904Z,1473.75
2018-05-16T08:40:16.857Z,1603.13
2018-05-16T08:41:24.616Z,1569.38
2018-05-16T08:41:54.567Z,1513.13
2018-05-16T08:43:02.360Z,1400.63
2018-05-16T08:43:32.280Z,1479.38
2018-05-16T08:44:40.042Z,1468.13
2018-05-16T08:45:09.984Z,1406.25
2018-05-16T08:46:17.747Z,1406.25
2018-05-16T08:46:47.694Z,1417.50
2018-05-16T08:47:55.480Z,1231.88
2018-05-16T08:48:25.407Z,1271.25
2018-05-16T08:49:33.184Z,1293.75
2018-05-16T08:50:03.117Z,1333.13
2018-05-16T08:51:10.902Z,1383.75
2018-05-16T08:51:40.843Z,1378.13
2018-05-16T08:52:48.631Z,1411.88
2018-05-16T08:53:18.548Z,1423.13
2018-05-16T08:54:26.317Z,1361.25
2018-05-16T08:54:56.261Z,1406.25
2018-05-16T08:56:04.029Z,1395.00
2018-05-16T08:56:33.977Z,1350.00
2018-05-16T08:57:41.741Z,1406.25
2018-05-16T08:58:11.686Z,1456.88
2018-05-16T08:59:19.478Z,1451.25
2018-05-16T08:59:49.405Z,1445.63
2018-05-16T09:00:57.170Z,1513.13
2018-05-16T09:01:27.109Z,1552.50
2018-05-16T09:02:34.876Z,1428.75
2018-05-16T09:03:04.825Z,1507.50
2018-05-16T09:04:12.592Z,1530.00
2018-05-16T09:04:42.537Z,1479.38
2018-05-16T09:05:50.319Z,1400.63
2018-05-16T09:06:20.245Z,1372.50
2018-05-16T09:07:28.012Z,1428.75
2018-05-16T09:07:57.959Z,1417.50
2018-05-16T09:09:05.718Z,1445.63
2018-05-16T09:09:35.665Z,1417.50
2018-05-16T09:10:43.448Z,1445.63
2018-05-16T09:11:13.382Z,1434.38
2018-05-16T09:12:21.146Z,1411.88
2018-05-16T09:12:51.089Z,1383.75
2018-05-16T09:13:58.866Z,1400.63
2018-05-16T09:14:28.806Z,1395.00
2018-05-16T09:15:36.599Z,1406.25
2018-05-16T09:16:06.522Z,1395.00
2018-05-16T09:17:14.300Z,1406.25
2018-05-16T09:17:44.234Z,1417.50
2018-05-16T09:18:52.005Z,1440.00
2018-05-16T09:19:21.952Z,1417.50
2018-05-16T09:20:29.703Z,1372.50
2018-05-16T09:20:59.654Z,1372.50
2018-05-16T09:22:07.444Z,1344.38
2018-05-16T09:22:37.371Z,1350.00
2018-05-16T09:23:45.129Z,1366.88
2018-05-16T09:24:15.170Z,1366.88
2018-05-16T09:25:22.840Z,1350.00
2018-05-16T09:25:52.843Z,1333.13
2018-05-16T09:27:00.581Z,1310.63
2018-05-16T09:27:30.504Z,1260.00
2018-05-16T09:28:38.289Z,1141.88
2018-05-16T09:29:08.234Z,1096.88
2018-05-16T09:30:15.993Z,1001.25
2018-05-16T09:30:45.944Z,967.50
2018-05-16T09:31:54.715Z,939.38
2018-05-16T09:32:24.652Z,950.63
2018-05-16T09:33:32.430Z,945.00
2018-05-16T09:34:02.359Z,911.25
2018-05-16T09:35:10.120Z,888.75
2018-05-16T09:35:40.075Z,894.38
2018-05-16T09:36:47.832Z,888.75
2018-05-16T09:37:17.790Z,888.75
2018-05-16T09:38:25.567Z,928.13
2018-05-16T09:38:55.504Z,956.25
2018-05-16T09:40:03.267Z,1006.88
2018-05-16T09:40:33.213Z,1023.75
2018-05-16T09:41:40.975Z,1074.38
2018-05-16T09:42:10.920Z,1080.00
2018-05-16T09:43:18.720Z,1085.63
2018-05-16T09:43:48.654Z,1085.63
2018-05-16T09:44:56.414Z,1108.13
2018-05-16T09:45:26.367Z,1136.25
2018-05-16T09:46:34.130Z,1192.50
2018-05-16T09:47:04.074Z,1198.13
2018-05-16T09:48:11.863Z,1108.13
2018-05-16T09:48:41.791Z,1029.38
2018-05-16T09:49:49.546Z,961.88
2018-05-16T09:50:19.496Z,978.75
2018-05-16T09:51:27.266Z,978.75
2018-05-16T09:51:57.209Z,984.38
2018-05-16T09:53:04.975Z,1068.75
2018-05-16T09:53:34.913Z,1141.88
2018-05-16T09:54:42.699Z,1248.75
2018-05-16T09:55:12.627Z,1260.00
2018-05-16T09:56:20.385Z,1288.13
2018-05-16T09:56:50.344Z,1305.00
2018-05-16T09:57:58.104Z,1372.50
2018-05-16T09:58:28.046Z,1378.13
2018-05-16T09:59:35.826Z,1361.25
2018-05-16T10:00:05.761Z,1338.75
2018-05-16T10:01:13.516Z,1350.00
2018-05-16T10:01:43.479Z,1344.38
2018-05-16T10:02:51.295Z,1260.00
2018-05-16T10:03:21.182Z,1209.38
2018-05-16T10:04:28.977Z,1170.00
2018-05-16T10:04:58.897Z,1192.50
2018-05-16T10:06:06.662Z,1192.50
2018-05-16T10:06:36.609Z,1192.50
2018-05-16T10:07:44.375Z,1237.50
2018-05-16T10:08:14.321Z,1254.38
2018-05-16T10:09:22.090Z,1265.63
2018-05-16T10:09:52.178Z,1226.25
2018-05-16T10:10:59.826Z,1192.50
2018-05-16T10:11:29.748Z,1203.75
2018-05-16T10:12:37.512Z,1237.50
2018-05-16T10:13:07.468Z,1254.38
2018-05-16T10:14:15.235Z,1254.38
2018-05-16T10:14:45.176Z,1276.88
2018-05-16T10:15:52.956Z,1237.50
2018-05-16T10:16:22.898Z,1203.75
2018-05-16T10:17:30.681Z,1096.88
2018-05-16T10:18:00.605Z,1074.38
2018-05-16T10:19:08.371Z,995.63
2018-05-16T10:19:38.318Z,1006.88
2018-05-16T10:20:46.089Z,945.00
2018-05-16T10:21:16.046Z,945.00
2018-05-16T10:22:23.828Z,956.25
2018-05-16T10:22:53.750Z,933.75
2018-05-16T10:24:01.519Z,916.88
2018-05-16T10:24:31.464Z,916.88
2018-05-16T10:25:39.233Z,922.50
2018-05-16T10:26:09.185Z,916.88
2018-05-16T10:27:16.959Z,967.50
2018-05-16T10:27:46.893Z,1012.50
2018-05-16T10:28:54.661Z,1074.38
2018-05-16T10:29:24.612Z,1108.13
2018-05-16T10:30:32.374Z,1175.63
2018-05-16T10:31:02.321Z,1192.50
2018-05-16T10:32:10.108Z,1248.75
2018-05-16T10:32:40.030Z,1260.00
2018-05-16T10:33:47.796Z,1248.75
2018-05-16T10:34:17.749Z,1248.75
2018-05-16T10:35:25.510Z,1288.13
2018-05-16T10:35:55.456Z,1299.38
2018-05-16T10:37:03.253Z,1327.50
2018-05-16T10:37:33.177Z,1316.25
2018-05-16T10:38:40.938Z,1316.25
2018-05-16T10:39:10.892Z,1321.88
2018-05-16T10:40:18.652Z,1372.50
2018-05-16T10:40:48.601Z,1372.50
2018-05-16T10:41:56.357Z,1372.50
2018-05-16T10:42:26.316Z,1372.50
2018-05-16T10:43:35.083Z,1383.75
2018-05-16T10:44:05.014Z,1395.00
2018-05-16T10:45:12.779Z,1310.63
2018-05-16T10:45:42.727Z,1276.88
2018-05-16T10:46:50.496Z,1209.38
2018-05-16T10:47:20.440Z,1181.25
2018-05-16T10:48:28.234Z,1141.88
2018-05-16T10:48:58.156Z,1147.50
2018-05-16T10:50:05.920Z,1175.63
2018-05-16T10:50:35.867Z,1192.50
2018-05-16T10:51:43.638Z,1215.00
2018-05-16T10:52:13.654Z,1215.00
2018-05-16T10:53:21.350Z,1226.25
2018-05-16T10:53:51.302Z,1231.88
2018-05-16T10:54:59.076Z,1288.13
2018-05-16T10:55:29.012Z,1299.38
2018-05-16T10:56:36.776Z,1305.00
2018-05-16T10:57:06.732Z,1310.63
2018-05-16T10:58:14.498Z,1321.88
2018-05-16T10:58:44.451Z,1321.88
2018-05-16T10:59:52.228Z,1310.63
2018-05-16T11:00:22.159Z,1299.38
2018-05-16T11:01:29.924Z,1276.88
2018-05-16T11:01:59.882Z,1271.25
2018-05-16T11:03:07.649Z,1248.75
2018-05-16T11:03:37.595Z,1215.00
2018-05-16T11:04:45.387Z,1175.63
2018-05-16T11:05:15.316Z,1158.75
2018-05-16T11:06:23.074Z,1136.25
2018-05-16T11:06:53.023Z,1130.63
2018-05-16T11:08:00.794Z,1125.00
2018-05-16T11:08:30.737Z,1113.75
2018-05-16T11:09:39.000Z,1102.50
2018-05-16T11:10:08.942Z,1108.13
2018-05-16T11:11:16.728Z,1113.75
2018-05-16T11:11:46.670Z,1119.38
2018-05-16T11:12:54.435Z,1136.25
2018-05-16T11:13:24.376Z,1147.50
2018-05-16T11:14:32.143Z,1170.00
2018-05-16T11:15:02.089Z,1170.00
2018-05-16T11:16:09.880Z,1158.75
2018-05-16T11:16:39.812Z,1130.63
2018-05-16T11:17:48.068Z,1130.63
2018-05-16T11:18:18.019Z,1153.13
2018-05-16T11:19:25.773Z,1158.75
2018-05-16T11:19:55.762Z,1158.75
2018-05-16T11:21:03.640Z,1153.13
2018-05-16T11:21:33.439Z,1164.38
2018-05-16T11:22:41.206Z,1175.63
2018-05-16T11:23:11.158Z,1181.25
2018-05-16T11:24:18.920Z,1209.38
2018-05-16T11:24:48.871Z,1226.25
2018-05-16T11:25:56.633Z,1243.13
2018-05-16T11:26:26.584Z,1237.50
2018-05-16T11:27:34.358Z,1215.00
2018-05-16T11:28:04.303Z,1215.00
2018-05-16T11:29:12.061Z,1209.38
2018-05-16T11:29:42.021Z,1209.38
2018-05-16T11:30:49.779Z,1203.75
2018-05-16T11:31:19.737Z,1203.75
2018-05-16T11:32:27.515Z,1215.00
2018-05-16T11:32:57.438Z,1203.75
2018-05-16T11:34:05.209Z,1175.63
2018-05-16T11:34:35.149Z,1164.38
2018-05-16T11:35:42.921Z,1147.50
2018-05-16T11:36:12.870Z,1153.13
2018-05-16T11:37:20.651Z,1164.38
2018-05-16T11:37:50.607Z,1175.63
2018-05-16T11:38:58.387Z,1158.75
2018-05-16T11:39:28.327Z,1147.50
2018-05-16T11:40:36.084Z,1130.63
2018-05-16T11:41:06.043Z,1119.38
2018-05-16T11:42:13.803Z,1125.00
2018-05-16T11:42:43.751Z,1119.38
2018-05-16T11:43:51.571Z,1113.75
2018-05-16T11:44:21.501Z,1113.75
2018-05-16T11:45:29.270Z,1130.63
2018-05-16T11:45:59.456Z,1119.38
2018-05-16T11:47:27.956Z,1125.00
2018-05-16T11:48:14.762Z,1125.00
2018-05-16T11:48:44.701Z,1125.00
2018-05-16T11:49:52.458Z,1119.38
2018-05-16T11:50:22.413Z,1113.75
2018-05-16T11:51:30.173Z,1119.38
2018-05-16T11:52:00.128Z,1113.75
2018-05-16T11:53:07.897Z,1091.25
2018-05-16T11:53:37.843Z,1091.25
2018-05-16T11:54:45.620Z,1108.13
2018-05-16T11:55:15.547Z,1119.38
2018-05-16T11:56:23.414Z,1136.25
2018-05-16T11:56:53.361Z,1136.25
2018-05-16T11:58:01.122Z,1158.75
2018-05-16T11:58:31.082Z,1147.50
2018-05-16T11:59:38.859Z,1147.50
2018-05-16T12:00:08.796Z,1141.88
2018-05-16T12:01:16.555Z,1125.00
2018-05-16T12:01:46.503Z,1119.38
2018-05-16T12:02:54.374Z,1102.50
2018-05-16T12:03:24.212Z,1096.88
2018-05-16T12:04:31.982Z,1102.50
2018-05-16T12:05:01.936Z,1085.63
2018-05-16T12:06:09.724Z,1085.63
2018-05-16T12:06:39.647Z,1085.63
2018-05-16T12:07:47.413Z,1091.25
2018-05-16T12:08:17.361Z,1091.25
2018-05-16T12:09:25.122Z,1102.50
2018-05-16T12:09:55.073Z,1102.50
2018-05-16T12:11:02.839Z,1119.38
2018-05-16T12:11:32.781Z,1119.38
2018-05-16T12:12:40.562Z,1130.63
2018-05-16T12:13:10.494Z,1141.88
2018-05-16T12:14:18.261Z,1147.50
2018-05-16T12:14:48.240Z,1153.13
2018-05-16T12:15:55.969Z,1181.25
2018-05-16T12:16:25.932Z,1181.25
2018-05-16T12:17:33.716Z,1186.88
2018-05-16T12:18:03.646Z,1186.88
2018-05-16T12:19:11.414Z,1175.63
2018-05-16T12:19:41.365Z,1175.63
2018-05-16T12:20:49.129Z,1164.38
2018-05-16T12:21:19.082Z,1158.75
2018-05-16T12:22:26.867Z,1147.50
2018-05-16T12:22:56.791Z,1164.38
2018-05-16T12:24:04.548Z,1192.50
2018-05-16T12:24:34.510Z,1192.50
2018-05-16T12:25:42.276Z,1198.13
2018-05-16T12:26:12.223Z,1203.75
2018-05-16T12:27:19.979Z,1175.63
2018-05-16T12:27:49.937Z,1164.38
2018-05-16T12:28:57.726Z,1130.63
2018-05-16T12:29:27.650Z,1108.13
2018-05-16T12:30:35.416Z,1029.38
2018-05-16T12:31:05.363Z,1012.50
2018-05-16T12:32:13.129Z,961.88
2018-05-16T12:32:43.085Z,956.25
2018-05-16T12:33:50.866Z,967.50
2018-05-16T12:34:20.788Z,961.88
2018-05-16T12:35:28.560Z,973.13
2018-05-16T12:35:58.503Z,984.38
2018-05-16T12:37:06.267Z,1040.63
2018-05-16T12:37:36.220Z,1063.13
2018-05-16T12:38:43.981Z,1102.50
2018-05-16T12:39:13.941Z,1108.13
2018-05-16T12:40:21.717Z,1108.13
2018-05-16T12:40:51.644Z,1125.00
2018-05-16T12:41:59.403Z,1181.25
2018-05-16T12:42:29.362Z,1198.13
2018-05-16T12:43:37.124Z,1226.25
2018-05-16T12:44:07.065Z,1220.63
2018-05-16T12:45:14.859Z,1198.13
2018-05-16T12:45:44.785Z,1186.88
2018-05-16T12:46:52.551Z,1158.75
2018-05-16T12:47:22.505Z,1136.25
2018-05-16T12:48:30.280Z,1085.63
2018-05-16T12:49:00.239Z,1051.88
2018-05-16T12:50:08.001Z,978.75
2018-05-16T12:50:37.949Z,978.75
2018-05-16T12:51:45.724Z,961.88
2018-05-16T12:52:15.657Z,961.88
2018-05-16T12:53:23.421Z,978.75
2018-05-16T12:53:53.377Z,984.38
2018-05-16T12:55:01.135Z,905.63
2018-05-16T12:55:31.090Z,883.13
2018-05-16T12:56:38.863Z,911.25
2018-05-16T12:57:08.810Z,900.00
2018-05-16T12:58:16.565Z,855.00
2018-05-16T12:58:46.519Z,793.13
2018-05-16T12:59:54.294Z,675.00
2018-05-16T13:00:24.241Z,652.50
2018-05-16T13:01:32.048Z,725.63
2018-05-16T13:02:01.952Z,793.13
2018-05-16T13:03:09.742Z,967.50
2018-05-16T13:03:39.684Z,990.00
2018-05-16T13:04:47.434Z,1029.38
2018-05-16T13:05:17.378Z,1068.75
2018-05-16T13:06:25.193Z,1153.13
2018-05-16T13:06:55.107Z,1170.00
2018-05-16T13:08:02.909Z,973.13
2018-05-16T13:08:32.837Z,883.13
2018-05-16T13:09:40.598Z,770.63
2018-05-16T13:10:10.564Z,787.50
2018-05-16T13:11:18.342Z,826.88
2018-05-16T13:11:48.263Z,821.25
2018-05-16T13:12:56.100Z,742.50
2018-05-16T13:13:25.990Z,720.00
2018-05-16T13:14:33.754Z,708.75
2018-05-16T13:15:03.701Z,720.00
2018-05-16T13:16:11.475Z,776.25
2018-05-16T13:16:41.421Z,793.13
2018-05-16T13:17:49.207Z,781.88
2018-05-16T13:18:19.175Z,770.63
2018-05-16T13:19:27.400Z,793.13
2018-05-16T13:19:57.342Z,832.50
2018-05-16T13:21:05.199Z,950.63
2018-05-16T13:21:35.161Z,1012.50
2018-05-16T13:22:42.874Z,1035.00
2018-05-16T13:23:12.776Z,990.00
2018-05-16T13:24:20.533Z,855.00
2018-05-16T13:24:50.492Z,855.00
2018-05-16T13:25:58.318Z,860.63
2018-05-16T13:26:28.220Z,883.13
2018-05-16T13:27:35.992Z,860.63
2018-05-16T13:28:05.934Z,810.00
2018-05-16T13:29:13.720Z,742.50
2018-05-16T13:29:43.651Z,731.25
2018-05-16T13:30:51.425Z,810.00
2018-05-16T13:31:21.403Z,871.88
2018-05-16T13:32:29.132Z,905.63
2018-05-16T13:32:59.117Z,950.63
2018-05-16T13:34:07.099Z,990.00
2018-05-16T13:34:36.800Z,973.13
2018-05-16T13:35:44.623Z,956.25
2018-05-16T13:36:14.607Z,950.63
2018-05-16T13:37:22.275Z,894.38
2018-05-16T13:37:52.221Z,894.38
2018-05-16T13:39:00.097Z,832.50
2018-05-16T13:39:29.998Z,826.88
2018-05-16T13:40:37.745Z,804.38
2018-05-16T13:41:07.703Z,759.38
2018-05-16T13:42:15.456Z,663.75
2018-05-16T13:42:45.404Z,630.00
2018-05-16T13:43:53.139Z,579.38
2018-05-16T13:44:23.087Z,562.50
2018-05-16T13:45:31.032Z,523.13
2018-05-16T13:46:00.803Z,540.00
2018-05-16T13:47:08.629Z,545.63
2018-05-16T13:47:39.647Z,551.25
2018-05-16T13:48:46.648Z,585.00
2018-05-16T13:49:16.478Z,618.75
2018-05-16T13:50:24.238Z,680.63
2018-05-16T13:50:54.106Z,691.88
2018-05-16T13:52:02.356Z,725.63
2018-05-16T13:52:32.273Z,742.50
2018-05-16T13:53:40.018Z,725.63
2018-05-16T13:54:09.947Z,708.75
2018-05-16T13:55:18.094Z,635.63
2018-05-16T13:55:47.683Z,618.75
2018-05-16T13:56:55.460Z,624.38
2018-05-16T13:57:25.394Z,646.88
2018-05-16T13:58:33.160Z,708.75
2018-05-16T13:59:03.110Z,736.88
2018-05-16T14:00:10.968Z,776.25
2018-05-16T14:00:40.839Z,787.50
2018-05-16T14:01:48.615Z,787.50
2018-05-16T14:02:18.554Z,781.88
2018-05-16T14:03:26.316Z,742.50
2018-05-16T14:03:56.267Z,748.13
2018-05-16T14:05:04.027Z,714.38
2018-05-16T14:05:33.989Z,697.50
2018-05-16T14:06:41.812Z,703.13
2018-05-16T14:07:11.750Z,708.75
2018-05-16T14:08:19.502Z,697.50
2018-05-16T14:08:49.454Z,686.25
2018-05-16T14:09:57.869Z,680.63
2018-05-16T14:10:27.165Z,686.25
2018-05-16T14:11:34.952Z,708.75
2018-05-16T14:12:04.875Z,720.00
2018-05-16T14:13:12.763Z,759.38
2018-05-16T14:13:42.588Z,770.63
2018-05-16T14:14:50.358Z,798.75
2018-05-16T14:15:20.326Z,810.00
2018-05-16T14:16:28.073Z,810.00
2018-05-16T14:16:58.021Z,770.63
2018-05-16T14:18:05.808Z,731.25
2018-05-16T14:18:35.730Z,714.38
2018-05-16T14:19:43.503Z,669.38
2018-05-16T14:20:13.508Z,652.50
2018-05-16T14:21:21.209Z,601.88
2018-05-16T14:21:51.178Z,607.50
2018-05-16T14:22:58.947Z,573.75
2018-05-16T14:23:28.865Z,590.63
2018-05-16T14:24:36.655Z,658.13
2018-05-16T14:25:06.642Z,658.13
2018-05-16T14:26:14.350Z,753.75
2018-05-16T14:26:44.305Z,776.25
2018-05-16T14:27:52.086Z,815.63
2018-05-16T14:28:22.011Z,832.50
2018-05-16T14:29:29.852Z,877.50
2018-05-16T14:29:59.755Z,900.00
2018-05-16T14:31:07.498Z,905.63